Latest Weather Observations for Barrow Island

IDW60801

Issued at 8:33 pm WST Monday 27 January 2020 (issued every 10 minutes, with the page automatically refreshed every 10 minutes)

About weather observations | Map of weather stations | Latest weather observations for WA | Other Formats
Station Details ID: 005094 Name: BARROW ISLAND AIRPORT Lat: -20.87 Lon: 115.41 Height: 6.4 m
Data from the previous 72 hours. | See also: Recent months at Barrow Island
Date/Time
WST
Temp
°C
App
Temp
°C
Dew
Point
°C
Rel
Hum
%
Delta-T
°C
Wind Press
QNH
hPa
Press
MSL
hPa
Rain since
9am
mm
Dir  Spd
km/h
Gust
km/h
Spd
kts
Gust
kts
27/08:30pm 28.1 31.3 25.5 86 1.8 W 19 24 10 13 1008.9 1008.9 0.0
27/08:00pm 28.3 30.3 25.7 86 1.8 WNW 26 32 14 17 1008.3 1008.3 0.0
27/07:30pm 28.6 30.9 25.6 84 2.1 WNW 24 28 13 15 1007.7 1007.7 0.0
27/07:00pm 29.0 30.0 25.4 81 2.5 WNW 30 35 16 19 1007.1 1007.1 0.0
27/06:30pm 30.1 30.4 24.9 73 3.6 WNW 32 39 17 21 1006.8 1006.8 0.0
27/06:00pm 31.0 31.0 24.4 68 4.6 WNW 32 39 17 21 1006.7 1006.7 0.0
27/05:30pm 32.2 32.1 24.3 63 5.5 WNW 32 39 17 21 1006.6 1006.6 0.0
27/05:00pm 33.0 32.3 23.6 57 6.5 WNW 33 39 18 21 1006.3 1006.3 0.0
27/04:30pm 33.8 33.3 23.8 56 7.0 WNW 33 41 18 22 1006.3 1006.3 0.0
27/04:00pm 34.9 34.0 22.2 47 8.7 WNW 30 35 16 19 1006.3 1006.3 0.0
27/03:30pm 35.0 35.7 24.3 54 7.5 WNW 28 37 15 20 1006.7 1006.7 0.0
27/03:00pm 35.2 35.3 23.2 49 8.4 WNW 28 35 15 19 1006.9 1006.9 0.0
27/02:30pm 36.1 36.6 22.6 45 9.3 WNW 24 32 13 17 1007.2 1007.2 0.0
27/02:00pm 36.3 37.9 23.2 47 9.1 WNW 20 28 11 15 1007.4 1007.4 0.0
27/01:30pm 35.9 37.3 23.5 48 8.7 WNW 22 32 12 17 1007.6 1007.6 0.0
27/01:00pm 35.7 37.6 23.7 50 8.4 NW 20 26 11 14 1007.8 1007.8 0.0
27/12:30pm 35.0 36.6 23.3 50 8.1 NW 20 26 11 14 1008.1 1008.1 0.0
27/12:00pm 36.3 39.1 24.9 52 8.1 NW 19 28 10 15 1008.5 1008.5 0.0
27/11:30am 32.9 38.2 26.4 68 4.7 SE 11 15 6 8 1008.8 1008.8 0.0
27/11:00am 32.3 36.9 25.9 69 4.6 S 13 19 7 10 1009.3 1009.3 0.0
27/10:30am 32.8 36.5 26.6 70 4.5 S 20 24 11 13 1009.5 1009.5 0.0
27/10:00am 32.1 36.6 26.9 74 3.8 SSE 17 19 9 10 1009.1 1009.1 0.0
27/09:30am 31.6 36.6 26.6 75 3.6 ESE 13 15 7 8 1009.0 1009.0 0.0
27/09:00am 30.7 36.0 25.8 75 3.5 ENE 9 13 5 7 1008.8 1008.8 0.0
27/08:30am 30.4 35.5 25.5 75 3.5 NE 9 13 5 7 1008.9 1008.9 0.0
27/08:00am 29.6 34.3 24.9 76 3.3 NNE 9 13 5 7 1008.9 1008.9 0.0
27/07:30am 28.8 33.5 25.6 83 2.3 WSW 11 15 6 8 1008.5 1008.5 0.0
27/07:00am 27.6 31.6 25.6 89 1.4 W 15 20 8 11 1008.1 1008.1 0.0
27/06:30am 26.0 29.6 25.0 94 0.7 W 15 17 8 9 1007.8 1007.8 0.0
27/06:00am 25.5 28.4 24.5 94 0.7 WNW 17 19 9 10 1007.2 1007.2 0.0
27/05:30am 24.9 27.6 23.5 92 1.0 WNW 15 17 8 9 1007.1 1007.1 0.0
27/05:00am 24.9 27.4 23.1 90 1.2 WNW 15 17 8 9 1006.9 1006.9 0.0
27/04:30am 25.1 28.7 23.0 88 1.4 WNW 9 11 5 6 1006.7 1006.7 0.0
27/04:00am 25.9 29.0 22.8 83 2.1 W 11 13 6 7 1006.7 1006.7 0.0
27/03:30am 27.2 30.0 23.7 81 2.4 WSW 15 17 8 9 1006.5 1006.5 0.0
27/03:00am 27.4 29.6 21.9 72 3.7 WSW 13 17 7 9 1006.8 1006.8 0.0
27/02:30am 28.3 30.7 22.3 70 4.1 SW 13 15 7 8 1006.8 1006.8 0.0
27/02:00am 28.7 30.2 22.7 70 4.1 SW 19 22 10 12 1006.8 1006.8 0.0
27/01:30am 28.1 30.0 23.7 77 3.0 SW 20 24 11 13 1006.9 1006.9 0.0
27/01:00am 28.3 29.5 23.9 77 3.0 SW 24 30 13 16 1007.2 1007.2 0.0
27/12:30am 28.2 29.0 23.8 77 3.0 SW 26 32 14 17 1007.7 1007.7 0.0
27/12:00am 28.1 29.8 24.7 82 2.4 SW 24 28 13 15 1007.9 1007.9 0.0
 
Date/Time
WST
Temp
°C
App
Temp
°C
Dew
Point
°C
Rel
Hum
%
Delta-T
°C
Wind Press
QNH
hPa
Press
MSL
hPa
Rain since
9am
mm
Dir  Spd
km/h
Gust
km/h
Spd
kts
Gust
kts
26/11:30pm 28.0 29.9 25.0 84 2.1 WSW 24 28 13 15 1007.9 1007.9 0.0
26/11:00pm 27.8 30.1 24.4 82 2.4 WSW 20 28 11 15 1008.0 1008.0 0.0
26/10:30pm 27.8 29.6 24.8 84 2.1 W 24 32 13 17 1007.6 1007.6 0.0
26/10:00pm 27.6 29.1 25.0 86 1.8 W 26 32 14 17 1007.4 1007.4 0.0
26/09:30pm 27.6 29.0 25.4 88 1.5 W 28 33 15 18 1007.5 1007.5 0.0
26/09:00pm 27.7 29.0 25.3 87 1.7 WNW 28 35 15 19 1007.4 1007.4 0.0
26/08:30pm 27.9 29.2 25.3 86 1.8 WNW 28 33 15 18 1007.2 1007.2 0.0
26/08:00pm 28.1 29.0 25.3 85 2.0 WNW 30 35 16 19 1007.1 1007.1 0.0
26/07:30pm 28.5 29.8 25.3 83 2.2 WNW 28 37 15 20 1006.8 1006.8 0.0
26/07:00pm 28.9 29.8 25.3 81 2.5 WNW 30 37 16 20 1006.7 1006.7 0.0
26/06:30pm 29.9 30.8 25.2 76 3.3 WNW 30 39 16 21 1006.5 1006.5 0.0
26/06:00pm 30.9 31.5 25.3 72 4.0 WNW 32 39 17 21 1006.3 1006.3 0.0
26/05:30pm 31.8 32.4 24.7 66 5.0 WNW 30 37 16 20 1006.1 1006.1 0.0
26/05:00pm 32.2 33.0 24.5 64 5.4 NW 28 35 15 19 1006.3 1006.3 0.0
26/04:30pm 33.3 34.3 24.2 59 6.4 NW 26 32 14 17 1006.4 1006.4 0.0
26/04:00pm 33.8 34.4 23.5 55 7.2 NNW 26 33 14 18 1006.5 1006.5 0.0
26/03:30pm 35.1 38.7 25.0 56 7.2 NNW 15 28 8 15 1006.6 1006.6 0.0
26/03:00pm 32.5 37.0 25.8 68 4.8 SSW 13 13 7 7 1006.8 1006.8 0.0
26/02:30pm 32.0 37.3 25.8 69 4.4 W 9 11 5 6 1007.2 1007.2 0.0
26/02:00pm 32.3 36.9 25.9 69 4.6 SSW 13 15 7 8 1007.3 1007.3 0.0
26/01:30pm 32.1 36.0 25.4 67 4.8 SSE 15 19 8 10 1007.4 1007.4 0.0
26/01:00pm 31.5 34.9 25.8 72 4.1 ESE 19 20 10 11 1007.6 1007.6 0.0
26/12:30pm 32.3 34.9 26.6 72 4.1 E 26 37 14 20 1007.6 1007.6 0.0
26/12:00pm 36.7 38.9 23.9 47 9.0 NW 19 24 10 13 1007.2 1007.2 0.0
26/11:30am 33.2 38.3 25.5 64 5.5 ESE 9 11 5 6 1007.6 1007.6 0.0
26/11:00am 31.8 34.7 25.4 69 4.5 S 20 28 11 15 1008.1 1008.1 0.0
26/10:30am 32.0 35.5 26.3 72 4.1 S 20 28 11 15 1008.3 1008.3 0.0
26/10:00am 31.6 35.6 26.2 73 3.9 SSE 17 20 9 11 1008.6 1008.6 0.0
26/09:30am 30.7 35.5 25.1 72 3.9 S 9 13 5 7 1008.7 1008.7 0.0
26/09:00am 31.1 36.1 25.4 71 4.0 SSE 9 13 5 7 1008.8 1008.8 0.0
26/08:30am 30.2 34.1 23.6 67 4.6 WSW 9 13 5 7 1008.8 1008.8 0.0
26/08:00am 29.3 32.8 24.2 74 3.5 WSW 13 17 7 9 1008.4 1008.4 0.0
26/07:30am 28.6 33.3 25.0 81 2.5 W 9 11 5 6 1008.2 1008.2 0.0
26/07:00am 27.6 31.8 24.8 85 2.0 W 11 17 6 9 1008.1 1008.1 0.0
26/06:30am 26.7 31.1 25.1 91 1.1 WSW 11 13 6 7 1007.9 1007.9 0.0
26/06:00am 26.4 30.0 25.0 92 1.0 WSW 15 19 8 10 1007.6 1007.6 0.0
26/05:30am 26.2 30.8 24.8 92 1.0 W 9 17 5 9 1007.5 1007.5 0.0
26/05:00am 26.2 29.9 24.6 91 1.1 WNW 13 17 7 9 1007.3 1007.3 0.0
26/04:30am 26.5 30.4 24.9 91 1.1 W 13 19 7 10 1007.2 1007.2 0.0
26/04:00am 26.7 30.9 24.7 89 1.4 WNW 11 15 6 8 1006.6 1006.6 0.0
26/03:30am 26.9 30.7 24.7 88 1.5 NNW 13 20 7 11 1006.8 1006.8 0.0
26/03:00am 26.8 29.8 24.6 88 1.5 WNW 17 20 9 11 1006.7 1006.7 0.0
26/02:30am 27.0 30.0 24.6 87 1.7 WNW 17 22 9 12 1006.9 1006.9 0.0
26/02:00am 27.0 29.6 24.6 87 1.7 WNW 19 22 10 12 1006.8 1006.8 0.0
26/01:30am 26.9 31.5 24.7 88 1.5 NW 9 13 5 7 1007.6 1007.6 0.0
26/01:00am 27.0 29.6 24.6 87 1.7 WNW 19 22 10 12 1007.5 1007.5 0.0
26/12:30am 27.1 28.0 24.6 86 1.7 W 28 35 15 19 1007.5 1007.5 0.0
26/12:00am 27.5 28.2 24.9 86 1.8 W 30 37 16 20 1007.7 1007.7 0.0
 
Date/Time
WST
Temp
°C
App
Temp
°C
Dew
Point
°C
Rel
Hum
%
Delta-T
°C
Wind Press
QNH
hPa
Press
MSL
hPa
Rain since
9am
mm
Dir  Spd
km/h
Gust
km/h
Spd
kts
Gust
kts
25/11:30pm 27.8 28.8 25.4 87 1.7 WSW 30 35 16 19 1008.6 1008.6 0.0
25/11:00pm 27.6 29.1 25.0 86 1.8 W 26 33 14 18 1008.6 1008.6 0.0
25/10:30pm 27.6 29.8 24.8 85 2.0 WNW 22 26 12 14 1008.4 1008.4 0.0
25/10:00pm 27.6 28.6 24.8 85 2.0 WNW 28 35 15 19 1007.6 1007.6 0.0
25/09:30pm 27.8 29.1 24.6 83 2.2 WNW 26 30 14 16 1007.5 1007.5 0.0
25/09:00pm 28.1 31.4 24.5 81 2.5 WNW 15 19 8 10 1008.3 1008.3 0.0
25/08:30pm 28.8 33.4 24.8 79 2.8 ENE 9 15 5 8 1008.8 1008.8 0.0
25/08:00pm 28.6 32.1 25.4 83 2.3 E 17 26 9 14 1009.5 1009.5 0.0
25/07:30pm 28.3 31.1 24.9 82 2.4 W 19 22 10 12 1008.1 1008.1 0.0
25/07:00pm 28.9 31.4 24.7 78 2.9 WNW 20 24 11 13 1007.8 1007.8 0.0
25/06:30pm 29.8 31.8 24.0 71 4.0 WNW 20 28 11 15 1007.7 1007.7 0.0
25/06:00pm 30.6 31.5 24.0 68 4.6 WNW 26 33 14 18 1007.0 1007.0 0.0
25/05:30pm 31.6 31.8 23.4 61 5.7 WNW 28 33 15 18 1006.1 1006.1 0.0
25/05:00pm 32.0 32.6 24.1 63 5.5 NW 28 35 15 19 1006.3 1006.3 0.0
25/04:30pm 33.0 33.7 23.6 57 6.5 NW 26 35 14 19 1006.5 1006.5 0.0
25/04:00pm 33.5 34.0 22.6 53 7.5 NW 24 32 13 17 1006.8 1006.8 0.0
25/03:30pm 33.5 35.3 23.5 55 6.9 NW 20 30 11 16 1007.1 1007.1 0.0
25/03:00pm 33.4 35.3 23.7 56 6.8 NW 20 30 11 16 1007.4 1007.4 0.0
25/02:30pm 33.5 35.3 23.5 55 6.9 NW 20 30 11 16 1007.6 1007.6 0.0
25/02:00pm 34.0 36.2 24.3 57 6.8 NNW 20 33 11 18 1007.8 1007.8 0.0
25/01:30pm 33.1 34.8 23.1 55 6.9 NNW 19 28 10 15 1008.0 1008.0 0.0
25/01:00pm 33.7 35.9 24.0 57 6.8 NNW 19 30 10 16 1008.4 1008.4 0.0
25/12:30pm 34.9 37.3 24.2 53 7.5 NNW 19 28 10 15 1008.5 1008.5 0.0
25/12:00pm 33.7 36.3 24.0 57 6.8 NW 17 24 9 13 1008.8 1008.8 0.0
25/11:30am 33.0 35.2 23.3 56 6.7 NNW 17 24 9 13 1009.2 1009.2 0.0
25/11:00am 32.1 34.9 23.6 60 5.9 NW 15 22 8 12 1009.4 1009.4 0.0
25/10:30am 32.3 34.5 23.3 59 6.2 NNW 17 24 9 13 1009.5 1009.5 0.0
25/10:00am 31.4 33.9 23.8 64 5.3 NW 17 24 9 13 1009.6 1009.6 0.0
25/09:30am 31.1 33.9 23.7 64 5.1 NW 15 20 8 11 1009.6 1009.6 0.0
25/09:00am 30.8 33.3 24.4 68 4.5 NW 19 26 10 14 1009.8 1009.8 0.0
25/08:30am 29.9 32.7 24.3 72 3.9 NNW 17 24 9 13 1009.7 1009.7 0.0
25/08:00am 29.2 32.9 24.5 76 3.3 NNW 13 17 7 9 1009.6 1009.6 0.0
25/07:30am 27.8 31.4 25.0 85 2.0 NNW 15 19 8 10 1009.3 1009.3 0.0
25/07:00am 26.2 30.9 25.0 93 0.8 NNW 9 13 5 7 1008.9 1008.9 0.0
25/06:30am 25.5 29.2 24.5 94 0.7 NW 13 17 7 9 1008.3 1008.3 0.0
25/06:00am 25.1 29.2 23.9 93 0.8 NW 9 11 5 6 1008.0 1008.0 0.0
25/05:30am 25.2 29.2 23.8 92 1.0 NW 9 11 5 6 1007.7 1007.7 0.0
25/05:00am 25.3 29.4 23.9 92 1.0 NNW 9 11 5 6 1007.6 1007.6 0.0
25/04:30am 25.6 29.7 24.0 91 1.1 NW 9 11 5 6 1007.6 1007.6 0.0
25/04:00am 25.9 30.1 24.1 90 1.2 NW 9 11 5 6 1007.8 1007.8 0.0
25/03:30am 26.4 30.9 24.6 90 1.2 NW 9 11 5 6 1007.9 1007.9 0.0
25/03:00am 26.5 30.6 24.5 89 1.4 NW 11 13 6 7 1008.1 1008.1 0.0
25/02:30am 26.4 30.8 24.4 89 1.4 WNW 9 11 5 6 1008.2 1008.2 0.0
25/02:00am 26.1 30.3 24.1 89 1.4 NW 9 13 5 7 1008.4 1008.4 0.0
25/01:30am 26.5 30.1 24.3 88 1.5 W 13 17 7 9 1008.4 1008.4 0.0
25/01:00am 27.1 30.3 24.9 88 1.5 WSW 17 22 9 12 1008.5 1008.5 0.0
25/12:30am 27.1 29.7 24.6 86 1.7 WSW 19 24 10 13 1008.8 1008.8 0.0
25/12:00am 27.3 29.9 24.6 85 1.9 WSW 19 26 10 14 1009.1 1009.1 0.0
 
Date/Time
WST
Temp
°C
App
Temp
°C
Dew
Point
°C
Rel
Hum
%
Delta-T
°C
Wind Press
QNH
hPa
Press
MSL
hPa
Rain since
9am
mm
Dir  Spd
km/h
Gust
km/h
Spd
kts
Gust
kts
24/11:30pm 27.5 30.0 24.7 85 1.9 WSW 20 24 11 13 1009.5 1009.5 0.0
24/11:00pm 27.6 30.3 25.0 86 1.8 WSW 20 24 11 13 1009.6 1009.6 0.0
24/10:30pm 27.4 30.1 24.8 86 1.8 W 19 24 10 13 1009.3 1009.3 0.0
24/10:00pm 27.5 30.2 25.1 87 1.7 WSW 20 26 11 14 1009.4 1009.4 0.0
24/09:30pm 27.2 30.7 24.8 87 1.7 W 15 20 8 11 1009.0 1009.0 0.0
24/09:00pm 27.4 30.4 24.7 85 1.9 WNW 17 20 9 11 1008.7 1008.7 0.0

Other formats

Comma delimited format used in spreadsheet applications
http://www.bom.gov.au/fwo/IDW60801/IDW60801.95304.axf

JavaScript Object Notation format (JSON) in row-major order
http://www.bom.gov.au/fwo/IDW60801/IDW60801.95304.json

Data quality

Most of these data are generated automatically and are frequently updated. Quality checks on data are not normally performed. It is possible for incorrect values to appear. Refer to information at About Latest Weather Observations and please check the disclaimer before using these data.